Rohnert Park, CA (94928)

5:58 AM PDT on August 20, 2014 (GMT -0700)
Volamus Vineyards | Change Station
CLOSE
Current Station
Personal Weather Station
Location: Penngrove, CA
Elevation: 115 ft
Nearby Weather Stations

Elev 115 ft 38.31 °N, 122.67 °W | Updated 4 minutes ago

Overcast
Overcast
59.5 °F
Feels Like 59.5 °F
N
0.0
Wind Variable Wind from North
Gusts 0.0 mph

Today
High -- | Low -- °F
--% Chance of Precip.
Yesterday
High -- | Low -- °F
Precip. -- in
6:29 AM 7:57 PM
Waning Crescent, 22% visible
Pressure 29.89 in
Visibility 10.0 miles
Clouds Overcast 1000 ft
Dew Point 58 °F
Humidity 95%
Rainfall 0.00 in
Snow Depth Not available.
UV 0 out of 12
Pollen 4.90 out of 12
Air Quality Not available.
Flu Activity Not available.
METAR KO69 201235Z AUTO 33004KT 10SM OVC010 15/14 A2989 RMK AO1

More Conditions Fewer Conditions

Pressure 29.89 in
Visibility 10.0 miles
Clouds Overcast 1000 ft
Dew Point 58 °F
Humidity 95%
Rainfall 0.00 in
Snow Depth Not available.
UV 0 out of 12
Pollen 4.90 out of 12
Air Quality Not available.
Flu Activity Not available.
METAR KO69 201235Z AUTO 33004KT 10SM OVC010 15/14 A2989 RMK AO1

More Conditions Fewer Conditions

10-Day Weather Forecast

Almanac

Astronomy

Aug. 20, 2014 Rise Set
Actual Time 6:29 AM PDT 7:57 PM PDT
Civil Twilight 6:02 AM PDT 8:25 PM PDT
Nautical Twilight 5:28 AM PDT 8:58 PM PDT
Astronomical Twilight 4:53 AM PDT 9:33 PM PDT
Moon 2:15 AM PDT 4:45 PM PDT
Length of Visible Light 14h 23m
Length of Day
13h 27m
Tomorrow will be 2m 15s shorter.
Waning Crescent, 22% of the Moon is Illuminated
Today
Waning Crescent
Aug 25
New
Sep 2
First Quarter
Sep 8
Full
Sep 15
Last Quarter

Today's Extremes

State Highs State Lows

Community

WunderPhotos

Upload Photos

1,745,618 photos uploaded!

Nearby

Air Quality

  Air Quality AQ Index Pollutant
Wednesday Good
PM2.5
Thursday Good
PM2.5
Friday Good
PM2.5
Saturday Moderate
PM2.5
Sunday Moderate
PM2.5

Snow Depth

Station Depth Elevation
CSS Lab 0 in 6900 ft
Echo Peak 1 in 7800 ft
Fallen Leaf 0 in 6300 ft
Forestdale Creek 0 in 8029 ft
Independence Camp 0 in 7000 ft

Earthquake Activity

City Distance Mag. Time & Date
The Geysers, California 29 miles 2.6 8:55 PM PDT
2014-08-13
Upper Lake, California 69 miles 2.9 3:32 PM PDT
2014-08-13
Minimum magnitude displayed is 2.5.

Coastal Water Temperatures

Place Temperature
Point Reyes, CA 59.0 °F
Arena Cove, CA 57.0 °F
San Francisco, CA 64.9 °F
Richmond, CA 66.0 °F

Nearby Weather Stations